Airfield :







YOU CAN JOIN US ON...

 
LOGIN :

Register | Disclaimer

   EN    FR    IT 

 









Legend :    VFR   Marginal VFR   IFR   Intensive IFR   Very Intensive IFR
Visi :
Ceiling :
>= 8 km
>= 3000ft
5 to 8 km
1000 to 3000 ft
1500m to 5 km
500 to 1000 ft
800 to 1500m
200 to 500 ft
< 800m
< 200 ft
Symbols :   Thunderstorms  Fog  Heavy snow  Heavy precipitations  Wind > 20 kt






- Airport Elevation : 203 ft
- IATA code : YQY


CYQY - Sydney

CURRENT METAR :
  • 120500Z 28005KT 15SM SCT026 OVC035 M04/M06 A3014 RMK SC4SC4 SLP210

EXPIRED METARs :
  • 120400Z 31004KT 15SM SCT022 OVC030 M03/M06 A3013 RMK SC3SC5 SLP208
  • 120352Z 31006KT 15SM BKN022 OVC030 M03/M06 A3013 RMK SC5SC3 SLP207
  • 120300Z 29003KT 15SM -SN OVC021 M03/M05 A3013 RMK SC8 SLP207

TAF TAF CYQY
Valid from the 12 at 00:00 until the 12 at 12:00 UTC


112340Z 1200/1212 35010KT 1SM -SN OVC008
TEMPO 1200/1201 6SM -SN OVC025
FM120100 34010KT 21/2SM -SN BKN015 OVC040
TEMPO 1201/1202 6SM -SN BKN040
FM120200 29007KT P6SM SCT020
TEMPO 1202/1204 BKN020
FM121000 24010KT P6SM -SHSN BKN020 RMK NXT FCST BY 120600Z



MET'MAP, your aeronautical weather chart ! - Copyright ORBIFLY December 2007 - Disclaimer

ORBIFLY MET'MAP TEAM :

Programming & Development : Alexandra Zaïnal
Concept & original design : Baudouin d'Aumeries
Assistance for programming : Marc-Olivier Méhu
Technical & hardware support : Manuel Goepfert

Contact : metmap@orbifly.com




SOURCES & CREDITS :

   NOAA